createdAt,value
2022-08-11T00:01:25.433Z,3.80
2022-08-11T00:04:02.409Z,3.73
2022-08-11T00:06:35.123Z,3.45
2022-08-11T00:09:06.099Z,3.70
2022-08-11T00:11:41.478Z,3.72
2022-08-11T00:14:18.317Z,3.67
2022-08-11T00:17:01.734Z,3.67
2022-08-11T00:20:14.779Z,3.90
2022-08-11T00:22:38.899Z,3.67
2022-08-11T00:25:14.006Z,3.70
2022-08-11T00:27:41.738Z,3.75
2022-08-11T00:30:10.797Z,3.80
2022-08-11T00:32:39.997Z,3.83
2022-08-11T00:35:50.868Z,3.83
2022-08-11T00:38:01.028Z,3.88
2022-08-11T00:40:39.002Z,3.75
2022-08-11T00:43:28.236Z,3.83
2022-08-11T00:46:09.492Z,4.00
2022-08-11T00:49:11.836Z,3.78
2022-08-11T00:52:13.239Z,4.10
2022-08-11T00:54:59.198Z,3.85
2022-08-11T00:57:44.204Z,3.80
2022-08-11T01:00:23.483Z,3.97
2022-08-11T01:03:29.126Z,4.20
2022-08-11T01:06:14.722Z,4.35
2022-08-11T01:09:22.682Z,4.07
2022-08-11T01:12:18.054Z,4.15
2022-08-11T01:14:48.167Z,4.27
2022-08-11T01:17:39.447Z,4.20
2022-08-11T01:20:46.574Z,4.15
2022-08-11T01:23:31.241Z,4.28
2022-08-11T01:26:19.746Z,3.90
2022-08-11T01:29:08.530Z,4.30
2022-08-11T01:32:13.271Z,4.50
2022-08-11T01:34:43.450Z,4.57
2022-08-11T01:37:41.051Z,4.60
2022-08-11T01:40:27.153Z,4.53
2022-08-11T01:43:38.209Z,4.30
2022-08-11T01:46:22.718Z,4.38
2022-08-11T01:50:08.325Z,4.30
2022-08-11T01:52:33.622Z,4.13
2022-08-11T01:55:17.601Z,4.40
2022-08-11T01:58:00.998Z,4.57
2022-08-11T02:00:32.417Z,4.43
2022-08-11T02:03:08.128Z,4.57
2022-08-11T02:06:44.168Z,4.43
2022-08-11T02:09:24.184Z,5.03
2022-08-11T02:11:56.370Z,4.53
2022-08-11T02:14:37.504Z,4.60
2022-08-11T02:17:36.763Z,4.37
2022-08-11T02:20:37.717Z,4.38
2022-08-11T02:24:05.789Z,4.20
2022-08-11T02:27:02.481Z,4.40
2022-08-11T02:30:05.012Z,4.30
2022-08-11T02:32:59.867Z,4.50
2022-08-11T02:35:36.563Z,3.80
2022-08-11T02:38:12.108Z,3.70
2022-08-11T02:41:01.482Z,3.97
2022-08-11T02:43:57.780Z,3.97
2022-08-11T02:46:32.658Z,4.28
2022-08-11T02:49:32.974Z,4.00
2022-08-11T02:52:05.758Z,3.90
2022-08-11T02:54:50.449Z,4.60
2022-08-11T02:57:35.566Z,4.70
2022-08-11T03:00:08.393Z,4.38
2022-08-11T03:02:42.809Z,4.10
2022-08-11T03:05:11.899Z,4.32
2022-08-11T03:08:00.883Z,4.20
2022-08-11T03:11:13.442Z,4.20
2022-08-11T03:14:07.542Z,4.05
2022-08-11T03:17:10.417Z,4.20
2022-08-11T03:19:53.281Z,4.28
2022-08-11T03:22:33.096Z,3.80
2022-08-11T03:25:13.104Z,4.20
2022-08-11T03:27:57.786Z,4.47
2022-08-11T03:30:39.678Z,4.20
2022-08-11T03:33:38.195Z,4.18
2022-08-11T03:36:23.165Z,3.97
2022-08-11T03:39:08.484Z,4.18
2022-08-11T03:42:03.423Z,3.90
2022-08-11T03:44:39.891Z,4.03
2022-08-11T03:47:37.798Z,4.23
2022-08-11T03:50:24.760Z,4.30
2022-08-11T03:52:58.246Z,4.17
2022-08-11T03:55:28.333Z,3.95
2022-08-11T03:58:29.502Z,4.23
2022-08-11T04:01:23.290Z,4.00
2022-08-11T04:04:15.449Z,3.97
2022-08-11T04:07:01.091Z,4.20
2022-08-11T04:09:52.838Z,4.05
2022-08-11T04:12:57.047Z,4.32
2022-08-11T04:15:55.082Z,4.40
2022-08-11T04:18:43.861Z,3.95
2022-08-11T04:21:32.921Z,4.20
2022-08-11T04:24:37.932Z,4.38
2022-08-11T04:27:37.653Z,4.13
2022-08-11T04:30:33.582Z,4.45
2022-08-11T04:33:39.436Z,4.63
2022-08-11T04:36:56.123Z,5.25
2022-08-11T04:39:41.906Z,5.28
2022-08-11T04:43:06.469Z,4.90
2022-08-11T04:45:54.999Z,5.10
2022-08-11T04:49:10.522Z,5.10
2022-08-11T04:52:26.139Z,5.27
2022-08-11T04:55:42.578Z,5.15
2022-08-11T04:58:36.015Z,5.10
2022-08-11T05:01:41.256Z,5.10
2022-08-11T05:04:47.539Z,5.30
2022-08-11T05:07:45.759Z,5.18
2022-08-11T05:10:45.840Z,5.03
2022-08-11T05:14:12.227Z,5.20
2022-08-11T05:17:09.061Z,4.80
2022-08-11T05:19:56.198Z,4.82
2022-08-11T05:22:48.235Z,4.88
2022-08-11T05:26:08.845Z,5.15
2022-08-11T05:29:00.681Z,5.13
2022-08-11T05:32:14.175Z,4.50
2022-08-11T05:34:54.108Z,4.33
2022-08-11T05:37:33.073Z,4.50
2022-08-11T05:40:26.223Z,4.60
2022-08-11T05:43:18.607Z,4.63
2022-08-11T05:46:19.263Z,4.75
2022-08-11T05:49:06.146Z,4.73
2022-08-11T05:52:04.974Z,4.90
2022-08-11T05:54:54.499Z,4.57
2022-08-11T05:57:45.435Z,4.83
2022-08-11T06:00:20.111Z,4.70
2022-08-11T06:02:55.093Z,4.40
2022-08-11T06:05:38.485Z,4.77
2022-08-11T06:08:13.377Z,4.70
2022-08-11T06:10:45.687Z,4.60
2022-08-11T06:13:16.770Z,4.60
2022-08-11T06:15:51.857Z,4.63
2022-08-11T06:18:19.719Z,4.57
2022-08-11T06:20:55.682Z,4.30
2022-08-11T06:23:25.713Z,4.40
2022-08-11T06:25:56.543Z,4.47
2022-08-11T06:28:32.587Z,4.93
2022-08-11T06:31:01.809Z,5.10
2022-08-11T06:33:43.822Z,5.28
2022-08-11T06:36:16.741Z,5.05
2022-08-11T06:39:02.282Z,5.20
2022-08-11T06:41:52.317Z,5.07
2022-08-11T06:44:32.352Z,4.60
2022-08-11T06:47:13.021Z,4.53
2022-08-11T06:50:06.324Z,5.13
2022-08-11T06:52:38.892Z,4.75
2022-08-11T06:55:57.536Z,5.05
2022-08-11T06:58:50.936Z,4.90
2022-08-11T07:01:46.626Z,5.05
2022-08-11T07:04:31.235Z,4.65
2022-08-11T07:07:24.479Z,4.97
2022-08-11T07:10:38.777Z,5.13
2022-08-11T07:13:43.189Z,5.05
2022-08-11T07:16:18.215Z,4.88
2022-08-11T07:19:16.597Z,4.70
2022-08-11T07:22:05.785Z,4.50
2022-08-11T07:24:59.372Z,4.80
2022-08-11T07:28:01.155Z,4.95
2022-08-11T07:30:29.716Z,4.60
2022-08-11T07:33:00.534Z,4.55
2022-08-11T07:35:38.448Z,4.23
2022-08-11T07:38:11.639Z,4.38
2022-08-11T07:40:40.386Z,4.35
2022-08-11T07:43:07.975Z,4.60
2022-08-11T07:45:54.323Z,4.13
2022-08-11T07:48:40.510Z,4.10
2022-08-11T07:51:26.522Z,4.50
2022-08-11T07:53:58.541Z,4.07
2022-08-11T07:56:54.405Z,4.40
2022-08-11T08:00:03.858Z,4.25
2022-08-11T08:02:59.378Z,4.00
2022-08-11T08:05:45.706Z,3.90
2022-08-11T08:08:34.662Z,4.30
2022-08-11T08:11:27.147Z,4.10
2022-08-11T08:14:14.077Z,4.20
2022-08-11T08:17:00.559Z,4.10
2022-08-11T08:19:28.350Z,4.03
2022-08-11T08:22:05.050Z,4.00
2022-08-11T08:24:41.747Z,4.22
2022-08-11T08:27:12.369Z,4.07
2022-08-11T08:29:58.938Z,4.10
2022-08-11T08:32:27.885Z,3.80
2022-08-11T08:34:56.969Z,3.85
2022-08-11T08:37:45.407Z,3.65
2022-08-11T08:40:14.570Z,4.00
2022-08-11T08:42:54.900Z,3.78
2022-08-11T08:45:23.409Z,3.70
2022-08-11T08:48:02.271Z,3.80
2022-08-11T08:50:52.585Z,4.07
2022-08-11T08:53:29.428Z,3.63
2022-08-11T08:55:59.778Z,3.53
2022-08-11T08:58:27.475Z,3.93
2022-08-11T09:00:58.311Z,3.75
2022-08-11T09:04:07.048Z,3.77
2022-08-11T09:06:17.136Z,3.30
2022-08-11T09:08:45.359Z,3.88
2022-08-11T09:11:33.301Z,3.42
2022-08-11T09:14:07.349Z,3.67
2022-08-11T09:16:38.996Z,3.90
2022-08-11T09:19:08.000Z,4.50
2022-08-11T09:21:46.506Z,4.30
2022-08-11T09:24:37.292Z,4.75
2022-08-11T09:27:07.364Z,5.07
2022-08-11T09:29:37.559Z,4.80
2022-08-11T09:32:07.018Z,5.03
2022-08-11T09:34:37.184Z,4.75
2022-08-11T09:37:54.760Z,4.78
2022-08-11T09:40:32.510Z,5.63
2022-08-11T09:43:21.886Z,5.28
2022-08-11T09:45:52.884Z,5.73
2022-08-11T09:48:22.868Z,6.13
2022-08-11T09:50:52.802Z,5.00
2022-08-11T09:53:37.518Z,5.18
2022-08-11T09:56:37.493Z,5.47
2022-08-11T09:59:05.843Z,6.10
2022-08-11T10:01:42.235Z,5.68
2022-08-11T10:04:17.377Z,6.40
2022-08-11T10:07:04.946Z,6.47
2022-08-11T10:10:01.123Z,6.15
2022-08-11T10:12:34.925Z,7.13
2022-08-11T10:15:25.734Z,6.95
2022-08-11T10:18:17.032Z,6.72
2022-08-11T10:20:49.071Z,6.80
2022-08-11T10:23:35.310Z,7.27
2022-08-11T10:26:44.471Z,7.60
2022-08-11T10:29:36.712Z,6.97
2022-08-11T10:32:28.585Z,7.60
2022-08-11T10:35:02.003Z,8.10
2022-08-11T10:38:06.330Z,7.43
2022-08-11T10:40:23.475Z,8.13
2022-08-11T10:43:06.787Z,7.82
2022-08-11T10:45:55.950Z,7.75
2022-08-11T10:48:26.670Z,7.75
2022-08-11T10:51:13.578Z,8.20
2022-08-11T10:54:12.556Z,7.57
2022-08-11T10:56:59.076Z,8.05
2022-08-11T10:59:30.232Z,7.70
2022-08-11T11:01:58.995Z,7.70
2022-08-11T11:04:39.152Z,8.20
2022-08-11T11:07:16.978Z,7.47
2022-08-11T11:09:49.352Z,8.33
2022-08-11T11:12:44.215Z,7.22
2022-08-11T11:15:33.208Z,7.18
2022-08-11T11:18:07.329Z,6.82
2022-08-11T11:21:08.194Z,6.43
2022-08-11T11:23:41.120Z,7.45
2022-08-11T11:26:33.554Z,6.37
2022-08-11T11:29:03.719Z,7.40
2022-08-11T11:31:58.395Z,6.63
2022-08-11T11:34:31.679Z,5.82
2022-08-11T11:37:01.471Z,5.90
2022-08-11T11:39:31.559Z,6.32
2022-08-11T11:42:08.419Z,6.13
2022-08-11T11:44:40.240Z,5.53
2022-08-11T11:47:08.064Z,6.30
2022-08-11T11:49:39.391Z,7.22
2022-08-11T11:52:09.095Z,5.88
2022-08-11T11:54:36.918Z,6.30
2022-08-11T11:57:23.510Z,5.55
2022-08-11T12:00:10.900Z,6.15
2022-08-11T12:02:41.821Z,5.82
2022-08-11T12:05:10.294Z,5.80
2022-08-11T12:08:12.633Z,6.35
2022-08-11T12:11:12.461Z,6.00
2022-08-11T12:13:41.180Z,5.88
2022-08-11T12:16:34.668Z,6.20
2022-08-11T12:19:01.787Z,4.68
2022-08-11T12:21:30.063Z,4.63
2022-08-11T12:24:18.749Z,5.80
2022-08-11T12:26:54.375Z,4.78
2022-08-11T12:29:41.286Z,4.53
2022-08-11T12:32:11.765Z,4.70
2022-08-11T12:34:39.970Z,5.53
2022-08-11T12:37:13.500Z,4.75
2022-08-11T12:40:16.752Z,5.10
2022-08-11T12:43:22.008Z,4.80
2022-08-11T12:45:58.135Z,4.32
2022-08-11T12:49:01.211Z,5.63
2022-08-11T12:52:01.531Z,5.65
2022-08-11T12:55:13.230Z,4.90
2022-08-11T12:58:05.629Z,4.70
2022-08-11T13:00:52.402Z,5.18
2022-08-11T13:03:39.575Z,4.45
2022-08-11T13:06:07.837Z,5.60
2022-08-11T13:08:42.756Z,4.85
2022-08-11T13:11:55.663Z,4.07
2022-08-11T13:14:17.172Z,4.60
2022-08-11T13:17:04.142Z,4.80
2022-08-11T13:19:32.176Z,4.70
2022-08-11T13:22:02.220Z,4.47
2022-08-11T13:24:33.931Z,5.75
2022-08-11T13:27:02.911Z,5.00
2022-08-11T13:29:30.560Z,4.40
2022-08-11T13:31:59.812Z,4.43
2022-08-11T13:34:30.984Z,4.47
2022-08-11T13:37:01.983Z,4.95
2022-08-11T13:39:31.946Z,5.17
2022-08-11T13:42:01.307Z,4.97
2022-08-11T13:44:34.578Z,4.43
2022-08-11T13:47:04.673Z,4.20
2022-08-11T13:49:35.736Z,4.45
2022-08-11T13:52:06.518Z,4.57
2022-08-11T13:54:38.405Z,4.03
2022-08-11T13:57:13.881Z,3.75
2022-08-11T14:00:09.637Z,4.20
2022-08-11T14:02:44.152Z,4.77
2022-08-11T14:05:18.089Z,3.95
2022-08-11T14:07:52.080Z,4.60
2022-08-11T14:10:22.172Z,4.90
2022-08-11T14:13:19.598Z,3.75
2022-08-11T14:15:49.838Z,3.08
2022-08-11T14:18:18.447Z,3.20
2022-08-11T14:21:10.838Z,3.20
2022-08-11T14:23:41.093Z,3.60
2022-08-11T14:26:28.891Z,3.70
2022-08-11T14:29:08.351Z,4.05
2022-08-11T14:31:47.322Z,3.95
2022-08-11T14:34:17.243Z,4.22
2022-08-11T14:36:47.045Z,3.37
2022-08-11T14:39:18.334Z,3.53
2022-08-11T14:42:13.279Z,3.28
2022-08-11T14:45:05.602Z,4.00
2022-08-11T14:47:40.028Z,3.43
2022-08-11T14:50:17.854Z,3.38
2022-08-11T14:52:51.626Z,3.65
2022-08-11T14:55:38.839Z,3.53
2022-08-11T14:58:10.588Z,3.30
2022-08-11T15:00:39.240Z,3.28
2022-08-11T15:03:11.293Z,3.03
2022-08-11T15:05:56.687Z,3.17
2022-08-11T15:08:54.608Z,3.47
2022-08-11T15:11:49.077Z,4.00
2022-08-11T15:14:41.301Z,3.83
2022-08-11T15:17:10.051Z,3.47
2022-08-11T15:20:00.734Z,3.30
2022-08-11T15:22:47.081Z,4.68
2022-08-11T15:25:14.752Z,3.20
2022-08-11T15:28:03.293Z,4.03
2022-08-11T15:30:50.324Z,3.78
2022-08-11T15:33:37.835Z,3.70
2022-08-11T15:36:27.734Z,4.03
2022-08-11T15:39:01.967Z,3.90
2022-08-11T15:42:02.098Z,3.75
2022-08-11T15:45:02.708Z,3.80
2022-08-11T15:47:41.587Z,3.70
2022-08-11T15:50:14.941Z,4.40
2022-08-11T15:53:19.944Z,3.40
2022-08-11T15:55:48.666Z,3.25
2022-08-11T15:58:37.109Z,3.83
2022-08-11T16:01:26.202Z,3.23
2022-08-11T16:04:13.340Z,3.88
2022-08-11T16:07:12.744Z,3.55
2022-08-11T16:09:52.618Z,3.22
2022-08-11T16:12:26.151Z,3.70
2022-08-11T16:15:20.250Z,3.70
2022-08-11T16:17:57.838Z,4.20
2022-08-11T16:20:27.809Z,3.92
2022-08-11T16:23:02.230Z,3.73
2022-08-11T16:27:01.885Z,3.05
2022-08-11T16:28:23.161Z,3.30
2022-08-11T16:30:51.863Z,3.30
2022-08-11T16:33:51.322Z,2.78
2022-08-11T16:36:31.967Z,3.50
2022-08-11T16:38:59.997Z,4.03
2022-08-11T16:41:49.630Z,3.63
2022-08-11T16:44:38.393Z,3.78
2022-08-11T16:47:08.407Z,3.58
2022-08-11T16:49:44.223Z,3.03
2022-08-11T16:52:20.927Z,3.10
2022-08-11T16:54:48.507Z,3.80
2022-08-11T16:57:45.182Z,3.42
2022-08-11T17:00:15.542Z,3.83
2022-08-11T17:03:10.085Z,4.13
2022-08-11T17:06:03.614Z,3.80
2022-08-11T17:08:57.402Z,3.67
2022-08-11T17:11:54.091Z,3.77
2022-08-11T17:14:36.609Z,3.80
2022-08-11T17:17:11.145Z,3.30
2022-08-11T17:20:40.429Z,3.70
2022-08-11T17:22:49.411Z,3.50
2022-08-11T17:25:19.236Z,3.50
2022-08-11T17:27:47.788Z,3.40
2022-08-11T17:30:16.844Z,3.63
2022-08-11T17:33:07.949Z,3.83
2022-08-11T17:35:39.214Z,3.30
2022-08-11T17:38:16.314Z,3.85
2022-08-11T17:41:07.961Z,3.67
2022-08-11T17:43:54.362Z,3.30
2022-08-11T17:46:40.735Z,3.35
2022-08-11T17:49:11.743Z,3.55
2022-08-11T17:51:59.742Z,3.20
2022-08-11T17:54:46.626Z,3.20
2022-08-11T17:57:33.803Z,3.25
2022-08-11T18:00:03.992Z,3.60
2022-08-11T18:03:01.090Z,4.03
2022-08-11T18:05:34.075Z,3.65
2022-08-11T18:08:24.156Z,3.63
2022-08-11T18:11:11.265Z,4.25
2022-08-11T18:14:04.170Z,3.88
2022-08-11T18:16:50.125Z,3.70
2022-08-11T18:19:36.325Z,3.20
2022-08-11T18:22:34.473Z,3.10
2022-08-11T18:25:27.518Z,3.08
2022-08-11T18:28:14.755Z,3.33
2022-08-11T18:31:06.629Z,2.97
2022-08-11T18:34:08.659Z,2.72
2022-08-11T18:36:59.639Z,3.00
2022-08-11T18:39:55.995Z,2.60
2022-08-11T18:42:43.499Z,2.70
2022-08-11T18:45:40.506Z,2.60
2022-08-11T18:48:37.483Z,2.65
2022-08-11T18:51:36.280Z,2.60
2022-08-11T18:54:31.473Z,2.72
2022-08-11T18:57:21.973Z,2.60
2022-08-11T19:00:10.406Z,2.28
2022-08-11T19:02:57.898Z,2.70
2022-08-11T19:06:32.351Z,2.30
2022-08-11T19:09:00.526Z,2.10
2022-08-11T19:11:49.688Z,2.20
2022-08-11T19:14:36.894Z,2.20
2022-08-11T19:17:44.281Z,2.08
2022-08-11T19:20:35.574Z,2.15
2022-08-11T19:23:23.612Z,2.10
2022-08-11T19:26:09.477Z,1.70
2022-08-11T19:28:57.167Z,2.00
2022-08-11T19:31:44.923Z,2.00
2022-08-11T19:34:37.962Z,2.05
2022-08-11T19:37:25.891Z,2.20
2022-08-11T19:40:23.862Z,2.10
2022-08-11T19:43:18.736Z,2.10
2022-08-11T19:46:15.763Z,2.08
2022-08-11T19:49:03.812Z,2.00
2022-08-11T19:51:54.212Z,1.90
2022-08-11T19:54:49.848Z,2.08
2022-08-11T19:57:40.158Z,1.92
2022-08-11T20:00:38.888Z,1.90
2022-08-11T20:03:27.737Z,2.03
2022-08-11T20:06:15.762Z,1.90
2022-08-11T20:09:04.415Z,2.20
2022-08-11T20:11:55.966Z,2.30
2022-08-11T20:14:44.354Z,2.10
2022-08-11T20:17:32.256Z,2.00
2022-08-11T20:20:23.206Z,2.05
2022-08-11T20:23:12.563Z,1.90
2022-08-11T20:26:08.430Z,2.05
2022-08-11T20:29:07.143Z,2.15
2022-08-11T20:31:54.079Z,2.10
2022-08-11T20:34:40.719Z,2.15
2022-08-11T20:37:27.537Z,2.22
2022-08-11T20:40:15.556Z,2.45
2022-08-11T20:43:02.847Z,2.17
2022-08-11T20:45:55.217Z,2.10
2022-08-11T20:48:43.882Z,2.22
2022-08-11T20:51:33.836Z,2.30
2022-08-11T20:54:42.989Z,2.40
2022-08-11T20:57:58.922Z,2.33
2022-08-11T21:00:41.113Z,2.35
2022-08-11T21:03:35.410Z,2.22
2022-08-11T21:06:31.310Z,2.50
2022-08-11T21:09:25.114Z,2.20
2022-08-11T21:12:29.407Z,2.60
2022-08-11T21:15:39.027Z,2.30
2022-08-11T21:18:28.212Z,2.53
2022-08-11T21:21:17.797Z,2.37
2022-08-11T21:24:04.087Z,2.60
2022-08-11T21:26:51.560Z,2.53
2022-08-11T21:29:38.034Z,2.78
2022-08-11T21:32:24.535Z,2.70
2022-08-11T21:35:11.994Z,2.73
2022-08-11T21:37:58.358Z,2.70
2022-08-11T21:40:45.901Z,2.67
2022-08-11T21:43:33.534Z,2.88
2022-08-11T21:46:22.703Z,2.85
2022-08-11T21:49:09.554Z,2.83
2022-08-11T21:51:59.413Z,2.70
2022-08-11T21:54:45.776Z,3.05
2022-08-11T21:57:33.681Z,2.90
2022-08-11T22:00:19.831Z,2.80
2022-08-11T22:03:06.866Z,2.83
2022-08-11T22:05:55.171Z,2.83
2022-08-11T22:08:41.034Z,2.50
2022-08-11T22:11:31.826Z,2.70
2022-08-11T22:14:20.263Z,2.70
2022-08-11T22:17:06.451Z,2.40
2022-08-11T22:19:57.930Z,2.50
2022-08-11T22:22:52.941Z,2.47
2022-08-11T22:25:50.778Z,2.47
2022-08-11T22:28:38.503Z,2.13
2022-08-11T22:31:26.720Z,2.23
2022-08-11T22:34:12.621Z,2.20
2022-08-11T22:37:01.030Z,2.40
2022-08-11T22:40:02.176Z,2.10
2022-08-11T22:42:51.923Z,2.30
2022-08-11T22:45:38.920Z,2.42
2022-08-11T22:48:26.065Z,2.50
2022-08-11T22:51:13.555Z,2.55
2022-08-11T22:54:00.128Z,2.33
2022-08-11T22:56:49.735Z,2.50
2022-08-11T22:59:37.446Z,2.30
2022-08-11T23:02:25.253Z,2.60
2022-08-11T23:05:12.248Z,2.30
2022-08-11T23:07:58.817Z,2.35
2022-08-11T23:10:45.926Z,2.53
2022-08-11T23:13:32.309Z,2.60
2022-08-11T23:16:18.863Z,2.60
2022-08-11T23:19:05.637Z,2.30
2022-08-11T23:21:53.166Z,2.42
2022-08-11T23:24:40.500Z,2.55
2022-08-11T23:27:28.214Z,2.42
2022-08-11T23:30:17.169Z,2.50
2022-08-11T23:33:09.595Z,2.80
2022-08-11T23:36:02.300Z,2.43
2022-08-11T23:38:51.302Z,2.40
2022-08-11T23:41:37.789Z,2.67
2022-08-11T23:44:25.239Z,2.93
2022-08-11T23:47:14.408Z,2.70
2022-08-11T23:50:00.847Z,2.70
2022-08-11T23:52:47.750Z,2.45
2022-08-11T23:55:34.186Z,2.50
2022-08-11T23:58:20.026Z,2.58
